sensor_id;sensor_type;location;lat;lon;timestamp;P1;durP1;ratioP1;P2;durP2;ratioP2
66669;SDS011;53568;52.164;4.472;2022-08-01T00:00:27;5.48;;;5.31;;
66669;SDS011;53568;52.164;4.472;2022-08-01T00:02:53;5.48;;;5.22;;
66669;SDS011;53568;52.164;4.472;2022-08-01T00:05:18;5.23;;;4.96;;
66669;SDS011;53568;52.164;4.472;2022-08-01T00:07:44;5.07;;;4.83;;
66669;SDS011;53568;52.164;4.472;2022-08-01T00:10:11;4.82;;;4.60;;
66669;SDS011;53568;52.164;4.472;2022-08-01T00:12:38;4.67;;;4.49;;
66669;SDS011;53568;52.164;4.472;2022-08-01T00:15:05;3.93;;;3.81;;
66669;SDS011;53568;52.164;4.472;2022-08-01T00:17:32;3.56;;;3.42;;
66669;SDS011;53568;52.164;4.472;2022-08-01T00:19:58;3.05;;;2.91;;
66669;SDS011;53568;52.164;4.472;2022-08-01T00:22:23;3.07;;;2.93;;
66669;SDS011;53568;52.164;4.472;2022-08-01T00:24:49;2.99;;;2.87;;
66669;SDS011;53568;52.164;4.472;2022-08-01T00:27:14;2.84;;;2.77;;
66669;SDS011;53568;52.164;4.472;2022-08-01T00:29:40;2.98;;;2.93;;
66669;SDS011;53568;52.164;4.472;2022-08-01T00:32:06;2.98;;;2.97;;
66669;SDS011;53568;52.164;4.472;2022-08-01T00:34:31;2.91;;;2.91;;
66669;SDS011;53568;52.164;4.472;2022-08-01T00:36:57;2.97;;;2.97;;
66669;SDS011;53568;52.164;4.472;2022-08-01T00:39:22;2.84;;;2.84;;
66669;SDS011;53568;52.164;4.472;2022-08-01T00:41:48;2.59;;;2.59;;
66669;SDS011;53568;52.164;4.472;2022-08-01T00:44:13;2.53;;;2.53;;
66669;SDS011;53568;52.164;4.472;2022-08-01T00:46:39;2.52;;;2.52;;
66669;SDS011;53568;52.164;4.472;2022-08-01T00:49:04;2.47;;;2.47;;
66669;SDS011;53568;52.164;4.472;2022-08-01T00:51:31;2.46;;;2.46;;
66669;SDS011;53568;52.164;4.472;2022-08-01T00:53:58;2.31;;;2.31;;
66669;SDS011;53568;52.164;4.472;2022-08-01T00:56:26;2.20;;;2.20;;
66669;SDS011;53568;52.164;4.472;2022-08-01T00:58:54;2.11;;;2.11;;
66669;SDS011;53568;52.164;4.472;2022-08-01T01:01:20;2.19;;;2.19;;
66669;SDS011;53568;52.164;4.472;2022-08-01T01:03:47;2.18;;;2.18;;
66669;SDS011;53568;52.164;4.472;2022-08-01T01:09:44;2.34;;;2.34;;
66669;SDS011;53568;52.164;4.472;2022-08-01T01:14:49;2.42;;;2.42;;
66669;SDS011;53568;52.164;4.472;2022-08-01T01:17:24;2.34;;;2.34;;
66669;SDS011;53568;52.164;4.472;2022-08-01T01:19:57;2.42;;;2.42;;
66669;SDS011;53568;52.164;4.472;2022-08-01T01:22:35;2.54;;;2.54;;
66669;SDS011;53568;52.164;4.472;2022-08-01T01:25:26;2.58;;;2.58;;
66669;SDS011;53568;52.164;4.472;2022-08-01T01:31:15;2.54;;;2.54;;
66669;SDS011;53568;52.164;4.472;2022-08-01T01:33:47;2.39;;;2.39;;
66669;SDS011;53568;52.164;4.472;2022-08-01T01:36:18;2.59;;;2.59;;
66669;SDS011;53568;52.164;4.472;2022-08-01T01:38:46;2.47;;;2.47;;
66669;SDS011;53568;52.164;4.472;2022-08-01T01:41:14;2.68;;;2.68;;
66669;SDS011;53568;52.164;4.472;2022-08-01T01:43:42;2.64;;;2.64;;
66669;SDS011;53568;52.164;4.472;2022-08-01T01:46:10;2.90;;;2.90;;
66669;SDS011;53568;52.164;4.472;2022-08-01T01:48:40;2.87;;;2.87;;
66669;SDS011;53568;52.164;4.472;2022-08-01T01:51:12;2.78;;;2.78;;
66669;SDS011;53568;52.164;4.472;2022-08-01T01:53:40;3.00;;;3.00;;
66669;SDS011;53568;52.164;4.472;2022-08-01T01:56:08;3.09;;;3.09;;
66669;SDS011;53568;52.164;4.472;2022-08-01T01:58:36;3.07;;;3.07;;
66669;SDS011;53568;52.164;4.472;2022-08-01T02:01:04;3.06;;;3.06;;
66669;SDS011;53568;52.164;4.472;2022-08-01T02:03:32;3.10;;;3.10;;
66669;SDS011;53568;52.164;4.472;2022-08-01T02:06:01;3.28;;;3.28;;
66669;SDS011;53568;52.164;4.472;2022-08-01T02:08:29;3.18;;;3.18;;
66669;SDS011;53568;52.164;4.472;2022-08-01T02:10:58;3.28;;;3.28;;
66669;SDS011;53568;52.164;4.472;2022-08-01T02:13:45;3.76;;;3.76;;
66669;SDS011;53568;52.164;4.472;2022-08-01T02:16:17;3.62;;;3.62;;
66669;SDS011;53568;52.164;4.472;2022-08-01T02:18:46;3.31;;;3.31;;
66669;SDS011;53568;52.164;4.472;2022-08-01T02:21:12;3.13;;;3.13;;
66669;SDS011;53568;52.164;4.472;2022-08-01T02:23:45;2.97;;;2.97;;
66669;SDS011;53568;52.164;4.472;2022-08-01T02:26:14;2.89;;;2.89;;
66669;SDS011;53568;52.164;4.472;2022-08-01T02:31:17;2.73;;;2.73;;
66669;SDS011;53568;52.164;4.472;2022-08-01T02:33:48;2.80;;;2.80;;
66669;SDS011;53568;52.164;4.472;2022-08-01T02:36:22;2.66;;;2.66;;
66669;SDS011;53568;52.164;4.472;2022-08-01T02:38:52;2.50;;;2.50;;
66669;SDS011;53568;52.164;4.472;2022-08-01T02:41:20;2.26;;;2.26;;
66669;SDS011;53568;52.164;4.472;2022-08-01T02:43:50;2.14;;;2.14;;
66669;SDS011;53568;52.164;4.472;2022-08-01T02:46:21;1.94;;;1.94;;
66669;SDS011;53568;52.164;4.472;2022-08-01T02:48:55;2.25;;;2.25;;
66669;SDS011;53568;52.164;4.472;2022-08-01T02:51:25;2.38;;;2.38;;
66669;SDS011;53568;52.164;4.472;2022-08-01T02:53:52;2.48;;;2.48;;
66669;SDS011;53568;52.164;4.472;2022-08-01T02:56:20;2.40;;;2.40;;
66669;SDS011;53568;52.164;4.472;2022-08-01T02:58:49;2.37;;;2.37;;
66669;SDS011;53568;52.164;4.472;2022-08-01T03:01:18;2.34;;;2.34;;
66669;SDS011;53568;52.164;4.472;2022-08-01T03:03:46;2.15;;;2.15;;
66669;SDS011;53568;52.164;4.472;2022-08-01T03:06:12;2.02;;;2.02;;
66669;SDS011;53568;52.164;4.472;2022-08-01T03:08:39;2.18;;;2.18;;
66669;SDS011;53568;52.164;4.472;2022-08-01T03:11:06;2.10;;;2.10;;
66669;SDS011;53568;52.164;4.472;2022-08-01T03:13:36;2.04;;;2.04;;
66669;SDS011;53568;52.164;4.472;2022-08-01T03:16:04;2.00;;;2.00;;
66669;SDS011;53568;52.164;4.472;2022-08-01T03:18:31;2.01;;;2.01;;
66669;SDS011;53568;52.164;4.472;2022-08-01T03:20:59;2.19;;;2.19;;
66669;SDS011;53568;52.164;4.472;2022-08-01T03:23:28;2.05;;;2.05;;
66669;SDS011;53568;52.164;4.472;2022-08-01T03:25:58;2.13;;;2.13;;
66669;SDS011;53568;52.164;4.472;2022-08-01T03:28:27;2.05;;;2.05;;
66669;SDS011;53568;52.164;4.472;2022-08-01T03:30:54;1.95;;;1.95;;
66669;SDS011;53568;52.164;4.472;2022-08-01T03:33:21;1.83;;;1.83;;
66669;SDS011;53568;52.164;4.472;2022-08-01T03:35:47;2.00;;;2.00;;
66669;SDS011;53568;52.164;4.472;2022-08-01T03:38:19;1.97;;;1.97;;
66669;SDS011;53568;52.164;4.472;2022-08-01T03:40:59;1.96;;;1.96;;
66669;SDS011;53568;52.164;4.472;2022-08-01T03:43:36;2.13;;;2.13;;
66669;SDS011;53568;52.164;4.472;2022-08-01T03:46:07;1.96;;;1.96;;
66669;SDS011;53568;52.164;4.472;2022-08-01T03:48:43;1.94;;;1.94;;
66669;SDS011;53568;52.164;4.472;2022-08-01T03:51:14;1.90;;;1.90;;
66669;SDS011;53568;52.164;4.472;2022-08-01T03:53:42;2.00;;;2.00;;
66669;SDS011;53568;52.164;4.472;2022-08-01T03:56:12;1.98;;;1.98;;
66669;SDS011;53568;52.164;4.472;2022-08-01T03:58:44;2.09;;;2.09;;
66669;SDS011;53568;52.164;4.472;2022-08-01T04:01:11;1.99;;;1.99;;
66669;SDS011;53568;52.164;4.472;2022-08-01T04:03:38;1.91;;;1.91;;
66669;SDS011;53568;52.164;4.472;2022-08-01T04:06:05;2.14;;;2.14;;
66669;SDS011;53568;52.164;4.472;2022-08-01T04:08:36;2.14;;;2.14;;
66669;SDS011;53568;52.164;4.472;2022-08-01T04:11:03;2.36;;;2.36;;
66669;SDS011;53568;52.164;4.472;2022-08-01T04:13:32;2.38;;;2.38;;
66669;SDS011;53568;52.164;4.472;2022-08-01T04:15:58;2.45;;;2.45;;
66669;SDS011;53568;52.164;4.472;2022-08-01T04:18:24;2.48;;;2.48;;
66669;SDS011;53568;52.164;4.472;2022-08-01T04:20:50;2.57;;;2.57;;
66669;SDS011;53568;52.164;4.472;2022-08-01T04:23:16;2.99;;;2.99;;
66669;SDS011;53568;52.164;4.472;2022-08-01T04:25:47;2.87;;;2.87;;
66669;SDS011;53568;52.164;4.472;2022-08-01T04:28:15;3.15;;;3.15;;
66669;SDS011;53568;52.164;4.472;2022-08-01T04:30:46;3.10;;;3.10;;
66669;SDS011;53568;52.164;4.472;2022-08-01T04:33:17;3.01;;;3.01;;
66669;SDS011;53568;52.164;4.472;2022-08-01T04:35:45;2.78;;;2.78;;
66669;SDS011;53568;52.164;4.472;2022-08-01T04:38:13;2.90;;;2.90;;
66669;SDS011;53568;52.164;4.472;2022-08-01T04:40:44;2.60;;;2.60;;
66669;SDS011;53568;52.164;4.472;2022-08-01T04:43:13;2.80;;;2.80;;
66669;SDS011;53568;52.164;4.472;2022-08-01T04:45:39;2.83;;;2.83;;
66669;SDS011;53568;52.164;4.472;2022-08-01T04:48:08;2.63;;;2.63;;
66669;SDS011;53568;52.164;4.472;2022-08-01T04:50:37;2.74;;;2.74;;
66669;SDS011;53568;52.164;4.472;2022-08-01T04:53:03;2.80;;;2.80;;
66669;SDS011;53568;52.164;4.472;2022-08-01T04:55:29;2.80;;;2.80;;
66669;SDS011;53568;52.164;4.472;2022-08-01T04:57:56;2.67;;;2.67;;
66669;SDS011;53568;52.164;4.472;2022-08-01T05:00:21;2.63;;;2.63;;
66669;SDS011;53568;52.164;4.472;2022-08-01T05:02:47;2.62;;;2.62;;
66669;SDS011;53568;52.164;4.472;2022-08-01T05:05:12;2.83;;;2.83;;
66669;SDS011;53568;52.164;4.472;2022-08-01T05:07:38;2.88;;;2.88;;
66669;SDS011;53568;52.164;4.472;2022-08-01T05:10:04;2.52;;;2.52;;
66669;SDS011;53568;52.164;4.472;2022-08-01T05:12:30;2.54;;;2.54;;
66669;SDS011;53568;52.164;4.472;2022-08-01T05:14:57;2.25;;;2.25;;
66669;SDS011;53568;52.164;4.472;2022-08-01T05:17:23;2.08;;;2.08;;
66669;SDS011;53568;52.164;4.472;2022-08-01T05:19:49;1.98;;;1.98;;
66669;SDS011;53568;52.164;4.472;2022-08-01T05:22:14;1.94;;;1.94;;
66669;SDS011;53568;52.164;4.472;2022-08-01T05:24:40;2.11;;;2.11;;
66669;SDS011;53568;52.164;4.472;2022-08-01T05:27:06;1.93;;;1.93;;
66669;SDS011;53568;52.164;4.472;2022-08-01T05:29:32;1.91;;;1.91;;
66669;SDS011;53568;52.164;4.472;2022-08-01T05:31:58;1.93;;;1.93;;
66669;SDS011;53568;52.164;4.472;2022-08-01T05:34:24;2.01;;;2.01;;
66669;SDS011;53568;52.164;4.472;2022-08-01T05:36:49;2.02;;;2.02;;
66669;SDS011;53568;52.164;4.472;2022-08-01T05:39:15;2.37;;;2.37;;
66669;SDS011;53568;52.164;4.472;2022-08-01T05:41:41;2.44;;;2.44;;
66669;SDS011;53568;52.164;4.472;2022-08-01T05:44:07;2.51;;;2.51;;
66669;SDS011;53568;52.164;4.472;2022-08-01T05:46:34;2.73;;;2.73;;
66669;SDS011;53568;52.164;4.472;2022-08-01T05:49:01;2.91;;;2.91;;
66669;SDS011;53568;52.164;4.472;2022-08-01T05:51:29;2.96;;;2.96;;
66669;SDS011;53568;52.164;4.472;2022-08-01T05:53:55;3.07;;;3.07;;
66669;SDS011;53568;52.164;4.472;2022-08-01T05:56:20;3.71;;;3.71;;
66669;SDS011;53568;52.164;4.472;2022-08-01T05:58:47;3.53;;;3.53;;
66669;SDS011;53568;52.164;4.472;2022-08-01T06:01:14;3.74;;;3.74;;
66669;SDS011;53568;52.164;4.472;2022-08-01T06:03:40;4.34;;;4.34;;
66669;SDS011;53568;52.164;4.472;2022-08-01T06:06:05;4.63;;;4.63;;
66669;SDS011;53568;52.164;4.472;2022-08-01T06:08:31;4.74;;;4.74;;
66669;SDS011;53568;52.164;4.472;2022-08-01T06:10:57;5.18;;;5.18;;
66669;SDS011;53568;52.164;4.472;2022-08-01T06:13:23;5.39;;;5.39;;
66669;SDS011;53568;52.164;4.472;2022-08-01T06:15:49;5.98;;;5.98;;
66669;SDS011;53568;52.164;4.472;2022-08-01T06:18:15;6.10;;;6.10;;
66669;SDS011;53568;52.164;4.472;2022-08-01T06:20:41;7.01;;;7.01;;
66669;SDS011;53568;52.164;4.472;2022-08-01T06:23:07;7.54;;;7.54;;
66669;SDS011;53568;52.164;4.472;2022-08-01T06:25:33;8.29;;;8.29;;
66669;SDS011;53568;52.164;4.472;2022-08-01T06:27:58;7.91;;;7.91;;
66669;SDS011;53568;52.164;4.472;2022-08-01T06:30:25;7.31;;;7.31;;
66669;SDS011;53568;52.164;4.472;2022-08-01T06:32:51;7.07;;;7.07;;
66669;SDS011;53568;52.164;4.472;2022-08-01T06:35:17;6.85;;;6.85;;
66669;SDS011;53568;52.164;4.472;2022-08-01T06:37:43;6.64;;;6.64;;
66669;SDS011;53568;52.164;4.472;2022-08-01T06:40:10;6.59;;;6.59;;
66669;SDS011;53568;52.164;4.472;2022-08-01T06:42:37;6.39;;;6.39;;
66669;SDS011;53568;52.164;4.472;2022-08-01T06:45:03;5.83;;;5.82;;
66669;SDS011;53568;52.164;4.472;2022-08-01T06:47:36;6.03;;;5.86;;
66669;SDS011;53568;52.164;4.472;2022-08-01T06:50:03;6.01;;;5.83;;
66669;SDS011;53568;52.164;4.472;2022-08-01T06:52:29;5.60;;;5.52;;
66669;SDS011;53568;52.164;4.472;2022-08-01T06:54:54;5.88;;;5.87;;
66669;SDS011;53568;52.164;4.472;2022-08-01T06:57:20;5.81;;;5.81;;
66669;SDS011;53568;52.164;4.472;2022-08-01T06:59:45;5.81;;;5.70;;
66669;SDS011;53568;52.164;4.472;2022-08-01T07:02:11;5.64;;;5.51;;
66669;SDS011;53568;52.164;4.472;2022-08-01T07:04:36;5.62;;;5.61;;
66669;SDS011;53568;52.164;4.472;2022-08-01T07:07:03;5.75;;;5.54;;
66669;SDS011;53568;52.164;4.472;2022-08-01T07:09:29;6.02;;;5.61;;
66669;SDS011;53568;52.164;4.472;2022-08-01T07:11:55;5.89;;;5.70;;
66669;SDS011;53568;52.164;4.472;2022-08-01T07:14:23;5.87;;;5.68;;
66669;SDS011;53568;52.164;4.472;2022-08-01T07:16:49;6.03;;;5.72;;
66669;SDS011;53568;52.164;4.472;2022-08-01T07:19:15;5.77;;;5.48;;
66669;SDS011;53568;52.164;4.472;2022-08-01T07:21:41;5.18;;;5.08;;
66669;SDS011;53568;52.164;4.472;2022-08-01T07:24:07;5.18;;;4.96;;
66669;SDS011;53568;52.164;4.472;2022-08-01T07:26:37;5.37;;;4.93;;
66669;SDS011;53568;52.164;4.472;2022-08-01T07:29:03;5.58;;;5.04;;
66669;SDS011;53568;52.164;4.472;2022-08-01T07:31:29;5.68;;;5.09;;
66669;SDS011;53568;52.164;4.472;2022-08-01T07:33:54;5.49;;;4.77;;
66669;SDS011;53568;52.164;4.472;2022-08-01T07:36:20;5.12;;;4.55;;
66669;SDS011;53568;52.164;4.472;2022-08-01T07:38:55;4.98;;;4.49;;
66669;SDS011;53568;52.164;4.472;2022-08-01T07:41:23;4.36;;;3.97;;
66669;SDS011;53568;52.164;4.472;2022-08-01T07:43:49;5.26;;;4.71;;
66669;SDS011;53568;52.164;4.472;2022-08-01T07:46:19;5.18;;;4.58;;
66669;SDS011;53568;52.164;4.472;2022-08-01T07:48:50;4.56;;;4.07;;
66669;SDS011;53568;52.164;4.472;2022-08-01T07:51:23;3.94;;;3.59;;
66669;SDS011;53568;52.164;4.472;2022-08-01T07:53:49;3.91;;;3.56;;
66669;SDS011;53568;52.164;4.472;2022-08-01T07:56:17;3.98;;;3.67;;
66669;SDS011;53568;52.164;4.472;2022-08-01T07:58:52;3.82;;;3.45;;
66669;SDS011;53568;52.164;4.472;2022-08-01T08:04:21;3.59;;;3.28;;
66669;SDS011;53568;52.164;4.472;2022-08-01T08:06:52;3.64;;;3.35;;
66669;SDS011;53568;52.164;4.472;2022-08-01T08:09:21;3.57;;;3.21;;
66669;SDS011;53568;52.164;4.472;2022-08-01T08:11:47;3.90;;;3.48;;
66669;SDS011;53568;52.164;4.472;2022-08-01T08:14:12;3.43;;;3.12;;
66669;SDS011;53568;52.164;4.472;2022-08-01T08:16:44;3.70;;;3.25;;
66669;SDS011;53568;52.164;4.472;2022-08-01T08:19:17;3.75;;;3.33;;
66669;SDS011;53568;52.164;4.472;2022-08-01T08:21:43;3.34;;;2.96;;
66669;SDS011;53568;52.164;4.472;2022-08-01T08:24:11;3.42;;;3.00;;
66669;SDS011;53568;52.164;4.472;2022-08-01T08:26:50;3.34;;;2.98;;
66669;SDS011;53568;52.164;4.472;2022-08-01T08:29:24;3.33;;;2.98;;
66669;SDS011;53568;52.164;4.472;2022-08-01T08:31:55;3.13;;;2.75;;
66669;SDS011;53568;52.164;4.472;2022-08-01T08:34:22;3.49;;;3.12;;
66669;SDS011;53568;52.164;4.472;2022-08-01T08:36:49;3.27;;;2.87;;
66669;SDS011;53568;52.164;4.472;2022-08-01T08:39:16;3.49;;;3.13;;
66669;SDS011;53568;52.164;4.472;2022-08-01T08:41:41;3.25;;;2.93;;
66669;SDS011;53568;52.164;4.472;2022-08-01T08:44:08;3.21;;;2.88;;
66669;SDS011;53568;52.164;4.472;2022-08-01T08:46:38;3.14;;;2.76;;
66669;SDS011;53568;52.164;4.472;2022-08-01T08:49:07;3.41;;;2.94;;
66669;SDS011;53568;52.164;4.472;2022-08-01T08:51:42;3.18;;;2.77;;
66669;SDS011;53568;52.164;4.472;2022-08-01T08:54:12;3.06;;;2.66;;
66669;SDS011;53568;52.164;4.472;2022-08-01T08:56:38;3.08;;;2.64;;
66669;SDS011;53568;52.164;4.472;2022-08-01T08:59:05;3.24;;;2.83;;
66669;SDS011;53568;52.164;4.472;2022-08-01T09:01:31;3.23;;;2.82;;
66669;SDS011;53568;52.164;4.472;2022-08-01T09:03:58;3.18;;;2.74;;
66669;SDS011;53568;52.164;4.472;2022-08-01T09:06:24;3.28;;;2.82;;
66669;SDS011;53568;52.164;4.472;2022-08-01T09:08:50;3.68;;;3.09;;
66669;SDS011;53568;52.164;4.472;2022-08-01T09:11:15;3.86;;;3.15;;
66669;SDS011;53568;52.164;4.472;2022-08-01T09:13:41;4.27;;;3.38;;
66669;SDS011;53568;52.164;4.472;2022-08-01T09:16:25;4.25;;;3.44;;
66669;SDS011;53568;52.164;4.472;2022-08-01T09:18:51;3.57;;;2.99;;
66669;SDS011;53568;52.164;4.472;2022-08-01T09:21:17;3.81;;;3.24;;
66669;SDS011;53568;52.164;4.472;2022-08-01T09:23:46;4.83;;;4.37;;
66669;SDS011;53568;52.164;4.472;2022-08-01T09:26:15;4.47;;;4.47;;
66669;SDS011;53568;52.164;4.472;2022-08-01T09:28:43;4.92;;;4.92;;
66669;SDS011;53568;52.164;4.472;2022-08-01T09:31:12;4.28;;;4.28;;
66669;SDS011;53568;52.164;4.472;2022-08-01T09:36:13;3.19;;;3.19;;
66669;SDS011;53568;52.164;4.472;2022-08-01T09:38:39;3.03;;;3.03;;
66669;SDS011;53568;52.164;4.472;2022-08-01T09:41:05;2.12;;;2.12;;
66669;SDS011;53568;52.164;4.472;2022-08-01T09:43:34;2.08;;;2.08;;
66669;SDS011;53568;52.164;4.472;2022-08-01T09:46:04;2.11;;;2.11;;
66669;SDS011;53568;52.164;4.472;2022-08-01T09:48:35;2.57;;;2.57;;
66669;SDS011;53568;52.164;4.472;2022-08-01T09:51:02;2.52;;;2.52;;
66669;SDS011;53568;52.164;4.472;2022-08-01T09:53:39;2.71;;;2.71;;
66669;SDS011;53568;52.164;4.472;2022-08-01T09:56:10;2.40;;;2.40;;
66669;SDS011;53568;52.164;4.472;2022-08-01T09:58:52;2.33;;;2.33;;
66669;SDS011;53568;52.164;4.472;2022-08-01T10:01:25;2.61;;;2.58;;
66669;SDS011;53568;52.164;4.472;2022-08-01T10:04:10;2.34;;;2.33;;
66669;SDS011;53568;52.164;4.472;2022-08-01T10:06:37;2.72;;;2.50;;
66669;SDS011;53568;52.164;4.472;2022-08-01T10:09:09;2.59;;;2.38;;
66669;SDS011;53568;52.164;4.472;2022-08-01T10:11:36;2.79;;;2.58;;
66669;SDS011;53568;52.164;4.472;2022-08-01T10:14:08;2.80;;;2.58;;
66669;SDS011;53568;52.164;4.472;2022-08-01T10:16:37;2.82;;;2.57;;
66669;SDS011;53568;52.164;4.472;2022-08-01T10:19:05;2.83;;;2.54;;
66669;SDS011;53568;52.164;4.472;2022-08-01T10:21:32;3.03;;;2.71;;
66669;SDS011;53568;52.164;4.472;2022-08-01T10:23:59;3.07;;;2.72;;
66669;SDS011;53568;52.164;4.472;2022-08-01T10:26:32;3.30;;;3.00;;
66669;SDS011;53568;52.164;4.472;2022-08-01T10:28:59;3.02;;;2.76;;
66669;SDS011;53568;52.164;4.472;2022-08-01T10:31:26;3.01;;;2.74;;
66669;SDS011;53568;52.164;4.472;2022-08-01T10:33:57;3.13;;;2.80;;
66669;SDS011;53568;52.164;4.472;2022-08-01T10:36:23;3.73;;;3.25;;
66669;SDS011;53568;52.164;4.472;2022-08-01T10:38:50;3.25;;;2.85;;
66669;SDS011;53568;52.164;4.472;2022-08-01T10:41:19;3.36;;;3.00;;
66669;SDS011;53568;52.164;4.472;2022-08-01T10:43:45;3.47;;;3.13;;
66669;SDS011;53568;52.164;4.472;2022-08-01T10:46:12;3.08;;;2.82;;
66669;SDS011;53568;52.164;4.472;2022-08-01T10:48:44;3.10;;;2.85;;
66669;SDS011;53568;52.164;4.472;2022-08-01T10:51:31;3.37;;;3.06;;
66669;SDS011;53568;52.164;4.472;2022-08-01T10:54:05;3.53;;;3.17;;
66669;SDS011;53568;52.164;4.472;2022-08-01T10:59:15;3.24;;;2.88;;
66669;SDS011;53568;52.164;4.472;2022-08-01T11:02:02;3.37;;;3.02;;
66669;SDS011;53568;52.164;4.472;2022-08-01T11:07:23;3.99;;;3.50;;
66669;SDS011;53568;52.164;4.472;2022-08-01T11:13:03;3.72;;;3.32;;
66669;SDS011;53568;52.164;4.472;2022-08-01T11:15:33;3.60;;;3.23;;
66669;SDS011;53568;52.164;4.472;2022-08-01T11:18:00;3.20;;;2.89;;
66669;SDS011;53568;52.164;4.472;2022-08-01T11:20:34;2.78;;;2.57;;
66669;SDS011;53568;52.164;4.472;2022-08-01T11:30:43;3.18;;;2.88;;
66669;SDS011;53568;52.164;4.472;2022-08-01T11:33:17;3.32;;;3.06;;
66669;SDS011;53568;52.164;4.472;2022-08-01T11:38:42;3.31;;;3.06;;
66669;SDS011;53568;52.164;4.472;2022-08-01T11:41:16;3.76;;;3.39;;
66669;SDS011;53568;52.164;4.472;2022-08-01T11:52:15;3.60;;;3.39;;
66669;SDS011;53568;52.164;4.472;2022-08-01T11:54:46;4.00;;;3.63;;
66669;SDS011;53568;52.164;4.472;2022-08-01T11:57:15;3.21;;;3.19;;
66669;SDS011;53568;52.164;4.472;2022-08-01T11:59:47;3.21;;;3.11;;
66669;SDS011;53568;52.164;4.472;2022-08-01T12:02:25;2.83;;;2.82;;
66669;SDS011;53568;52.164;4.472;2022-08-01T12:04:59;3.11;;;3.11;;
66669;SDS011;53568;52.164;4.472;2022-08-01T12:07:34;2.96;;;2.96;;
66669;SDS011;53568;52.164;4.472;2022-08-01T12:12:34;3.10;;;3.10;;
66669;SDS011;53568;52.164;4.472;2022-08-01T12:15:05;2.71;;;2.71;;
66669;SDS011;53568;52.164;4.472;2022-08-01T12:20:08;3.07;;;2.96;;
66669;SDS011;53568;52.164;4.472;2022-08-01T12:22:36;3.38;;;3.15;;
66669;SDS011;53568;52.164;4.472;2022-08-01T12:25:06;3.23;;;3.02;;
66669;SDS011;53568;52.164;4.472;2022-08-01T12:27:43;3.03;;;3.01;;
66669;SDS011;53568;52.164;4.472;2022-08-01T12:30:18;2.92;;;2.90;;
66669;SDS011;53568;52.164;4.472;2022-08-01T12:32:52;2.93;;;2.90;;
66669;SDS011;53568;52.164;4.472;2022-08-01T12:35:23;2.73;;;2.64;;
66669;SDS011;53568;52.164;4.472;2022-08-01T12:40:27;3.33;;;3.00;;
66669;SDS011;53568;52.164;4.472;2022-08-01T12:42:58;2.73;;;2.44;;
66669;SDS011;53568;52.164;4.472;2022-08-01T12:45:27;2.62;;;2.56;;
66669;SDS011;53568;52.164;4.472;2022-08-01T12:48:20;3.18;;;2.87;;
66669;SDS011;53568;52.164;4.472;2022-08-01T12:50:47;2.88;;;2.63;;
66669;SDS011;53568;52.164;4.472;2022-08-01T12:53:14;2.43;;;2.41;;
66669;SDS011;53568;52.164;4.472;2022-08-01T12:55:46;2.82;;;2.60;;
66669;SDS011;53568;52.164;4.472;2022-08-01T12:58:15;3.13;;;2.92;;
66669;SDS011;53568;52.164;4.472;2022-08-01T13:00:42;2.83;;;2.61;;
66669;SDS011;53568;52.164;4.472;2022-08-01T13:03:11;2.78;;;2.58;;
66669;SDS011;53568;52.164;4.472;2022-08-01T13:05:44;2.54;;;2.36;;
66669;SDS011;53568;52.164;4.472;2022-08-01T13:08:33;2.15;;;2.07;;
66669;SDS011;53568;52.164;4.472;2022-08-01T13:11:00;2.35;;;2.24;;
66669;SDS011;53568;52.164;4.472;2022-08-01T13:13:40;2.19;;;2.17;;
66669;SDS011;53568;52.164;4.472;2022-08-01T13:16:26;1.99;;;1.99;;
66669;SDS011;53568;52.164;4.472;2022-08-01T13:18:53;2.06;;;2.06;;
66669;SDS011;53568;52.164;4.472;2022-08-01T13:21:26;1.85;;;1.85;;
66669;SDS011;53568;52.164;4.472;2022-08-01T13:24:05;1.88;;;1.88;;
66669;SDS011;53568;52.164;4.472;2022-08-01T13:32:37;2.20;;;2.20;;
66669;SDS011;53568;52.164;4.472;2022-08-01T13:38:06;2.18;;;2.18;;
66669;SDS011;53568;52.164;4.472;2022-08-01T13:40:35;2.27;;;2.27;;
66669;SDS011;53568;52.164;4.472;2022-08-01T13:43:20;2.22;;;2.22;;
66669;SDS011;53568;52.164;4.472;2022-08-01T13:45:46;2.21;;;2.21;;
66669;SDS011;53568;52.164;4.472;2022-08-01T13:51:00;1.80;;;1.80;;
66669;SDS011;53568;52.164;4.472;2022-08-01T13:53:39;1.95;;;1.95;;
66669;SDS011;53568;52.164;4.472;2022-08-01T13:56:12;1.67;;;1.67;;
66669;SDS011;53568;52.164;4.472;2022-08-01T13:58:56;1.78;;;1.78;;
66669;SDS011;53568;52.164;4.472;2022-08-01T14:01:29;1.79;;;1.79;;
66669;SDS011;53568;52.164;4.472;2022-08-01T14:03:55;2.06;;;2.06;;
66669;SDS011;53568;52.164;4.472;2022-08-01T14:06:26;1.58;;;1.58;;
66669;SDS011;53568;52.164;4.472;2022-08-01T14:08:56;1.54;;;1.54;;
66669;SDS011;53568;52.164;4.472;2022-08-01T14:11:24;1.49;;;1.49;;
66669;SDS011;53568;52.164;4.472;2022-08-01T14:14:06;1.43;;;1.43;;
66669;SDS011;53568;52.164;4.472;2022-08-01T14:16:34;1.55;;;1.55;;
66669;SDS011;53568;52.164;4.472;2022-08-01T14:19:12;1.39;;;1.39;;
66669;SDS011;53568;52.164;4.472;2022-08-01T14:21:44;1.65;;;1.65;;
66669;SDS011;53568;52.164;4.472;2022-08-01T14:24:12;1.50;;;1.50;;
66669;SDS011;53568;52.164;4.472;2022-08-01T14:26:46;1.55;;;1.55;;
66669;SDS011;53568;52.164;4.472;2022-08-01T14:29:24;1.98;;;1.98;;
66669;SDS011;53568;52.164;4.472;2022-08-01T14:31:58;1.64;;;1.64;;
66669;SDS011;53568;52.164;4.472;2022-08-01T14:34:42;1.98;;;1.98;;
66669;SDS011;53568;52.164;4.472;2022-08-01T14:37:23;2.09;;;2.09;;
66669;SDS011;53568;52.164;4.472;2022-08-01T14:40:02;1.98;;;1.98;;
66669;SDS011;53568;52.164;4.472;2022-08-01T14:43:03;2.05;;;2.05;;
66669;SDS011;53568;52.164;4.472;2022-08-01T14:45:45;1.87;;;1.87;;
66669;SDS011;53568;52.164;4.472;2022-08-01T14:48:32;1.74;;;1.74;;
66669;SDS011;53568;52.164;4.472;2022-08-01T14:51:18;2.12;;;2.12;;
66669;SDS011;53568;52.164;4.472;2022-08-01T14:56:46;2.07;;;2.07;;
66669;SDS011;53568;52.164;4.472;2022-08-01T14:59:25;2.00;;;2.00;;
66669;SDS011;53568;52.164;4.472;2022-08-01T15:02:06;1.72;;;1.72;;
66669;SDS011;53568;52.164;4.472;2022-08-01T15:04:44;1.80;;;1.80;;
66669;SDS011;53568;52.164;4.472;2022-08-01T15:07:27;1.76;;;1.76;;
66669;SDS011;53568;52.164;4.472;2022-08-01T15:10:04;2.18;;;2.18;;
66669;SDS011;53568;52.164;4.472;2022-08-01T15:12:40;1.72;;;1.72;;
66669;SDS011;53568;52.164;4.472;2022-08-01T15:15:06;1.56;;;1.56;;
66669;SDS011;53568;52.164;4.472;2022-08-01T15:17:32;1.47;;;1.47;;
66669;SDS011;53568;52.164;4.472;2022-08-01T15:19:59;1.73;;;1.73;;
66669;SDS011;53568;52.164;4.472;2022-08-01T15:22:26;1.71;;;1.71;;
66669;SDS011;53568;52.164;4.472;2022-08-01T15:24:53;1.56;;;1.56;;
66669;SDS011;53568;52.164;4.472;2022-08-01T15:27:20;1.52;;;1.52;;
66669;SDS011;53568;52.164;4.472;2022-08-01T15:29:46;1.48;;;1.48;;
66669;SDS011;53568;52.164;4.472;2022-08-01T15:32:13;1.49;;;1.49;;
66669;SDS011;53568;52.164;4.472;2022-08-01T15:34:39;1.51;;;1.51;;
66669;SDS011;53568;52.164;4.472;2022-08-01T15:37:06;1.34;;;1.34;;
66669;SDS011;53568;52.164;4.472;2022-08-01T15:39:32;1.50;;;1.50;;
66669;SDS011;53568;52.164;4.472;2022-08-01T15:41:58;1.37;;;1.37;;
66669;SDS011;53568;52.164;4.472;2022-08-01T15:44:25;1.29;;;1.29;;
66669;SDS011;53568;52.164;4.472;2022-08-01T15:46:51;1.23;;;1.23;;
66669;SDS011;53568;52.164;4.472;2022-08-01T15:49:17;1.23;;;1.23;;
66669;SDS011;53568;52.164;4.472;2022-08-01T15:51:43;1.41;;;1.41;;
66669;SDS011;53568;52.164;4.472;2022-08-01T15:54:09;1.22;;;1.22;;
66669;SDS011;53568;52.164;4.472;2022-08-01T15:56:35;1.26;;;1.26;;
66669;SDS011;53568;52.164;4.472;2022-08-01T15:59:02;1.36;;;1.36;;
66669;SDS011;53568;52.164;4.472;2022-08-01T16:01:28;1.30;;;1.30;;
66669;SDS011;53568;52.164;4.472;2022-08-01T16:03:54;1.33;;;1.33;;
66669;SDS011;53568;52.164;4.472;2022-08-01T16:06:21;1.28;;;1.28;;
66669;SDS011;53568;52.164;4.472;2022-08-01T16:08:47;1.22;;;1.22;;